sensor_id;sensor_type;location;lat;lon;timestamp;P1;durP1;ratioP1;P2;durP2;ratioP2
55617;SDS011;41492;49.804;9.952;2022-11-04T00:01:18;664.55;;;332.98;;
55617;SDS011;41492;49.804;9.952;2022-11-04T00:03:45;663.67;;;333.48;;
55617;SDS011;41492;49.804;9.952;2022-11-04T00:06:12;662.28;;;321.77;;
55617;SDS011;41492;49.804;9.952;2022-11-04T00:08:40;660.80;;;318.70;;
55617;SDS011;41492;49.804;9.952;2022-11-04T00:11:08;669.35;;;337.38;;
55617;SDS011;41492;49.804;9.952;2022-11-04T00:13:52;661.38;;;318.30;;
55617;SDS011;41492;49.804;9.952;2022-11-04T00:16:19;657.63;;;305.58;;
55617;SDS011;41492;49.804;9.952;2022-11-04T00:19:03;661.60;;;323.38;;
55617;SDS011;41492;49.804;9.952;2022-11-04T00:21:30;663.75;;;326.58;;
55617;SDS011;41492;49.804;9.952;2022-11-04T00:24:15;661.13;;;316.98;;
55617;SDS011;41492;49.804;9.952;2022-11-04T00:26:59;656.70;;;303.65;;
55617;SDS011;41492;49.804;9.952;2022-11-04T00:29:44;664.33;;;322.58;;
55617;SDS011;41492;49.804;9.952;2022-11-04T00:32:11;658.70;;;306.45;;
55617;SDS011;41492;49.804;9.952;2022-11-04T00:34:55;665.38;;;330.45;;
55617;SDS011;41492;49.804;9.952;2022-11-04T00:37:22;664.38;;;337.17;;
55617;SDS011;41492;49.804;9.952;2022-11-04T00:39:50;661.45;;;318.58;;
55617;SDS011;41492;49.804;9.952;2022-11-04T00:42:16;663.92;;;330.92;;
55617;SDS011;41492;49.804;9.952;2022-11-04T00:44:43;662.78;;;321.85;;
55617;SDS011;41492;49.804;9.952;2022-11-04T00:47:10;661.58;;;318.45;;
55617;SDS011;41492;49.804;9.952;2022-11-04T00:49:36;664.85;;;323.10;;
55617;SDS011;41492;49.804;9.952;2022-11-04T00:52:03;664.67;;;338.27;;
55617;SDS011;41492;49.804;9.952;2022-11-04T00:54:30;655.88;;;304.38;;
55617;SDS011;41492;49.804;9.952;2022-11-04T00:56:58;662.67;;;324.42;;
55617;SDS011;41492;49.804;9.952;2022-11-04T00:59:24;662.28;;;316.60;;
55617;SDS011;41492;49.804;9.952;2022-11-04T01:01:51;662.47;;;328.90;;
55617;SDS011;41492;49.804;9.952;2022-11-04T01:04:18;666.47;;;343.20;;
55617;SDS011;41492;49.804;9.952;2022-11-04T01:06:44;666.20;;;331.88;;
55617;SDS011;41492;49.804;9.952;2022-11-04T01:09:11;662.60;;;324.35;;
55617;SDS011;41492;49.804;9.952;2022-11-04T01:11:38;664.38;;;330.40;;
55617;SDS011;41492;49.804;9.952;2022-11-04T01:14:06;659.83;;;313.02;;
55617;SDS011;41492;49.804;9.952;2022-11-04T01:16:34;655.13;;;296.00;;
55617;SDS011;41492;49.804;9.952;2022-11-04T01:19:00;663.47;;;331.52;;
55617;SDS011;41492;49.804;9.952;2022-11-04T01:21:27;665.20;;;333.23;;
55617;SDS011;41492;49.804;9.952;2022-11-04T01:23:54;664.85;;;328.58;;
55617;SDS011;41492;49.804;9.952;2022-11-04T01:26:21;659.78;;;318.08;;
55617;SDS011;41492;49.804;9.952;2022-11-04T01:28:50;662.58;;;325.48;;
55617;SDS011;41492;49.804;9.952;2022-11-04T01:31:20;666.72;;;339.85;;
55617;SDS011;41492;49.804;9.952;2022-11-04T01:33:48;662.80;;;329.45;;
55617;SDS011;41492;49.804;9.952;2022-11-04T01:36:15;655.50;;;297.80;;
55617;SDS011;41492;49.804;9.952;2022-11-04T01:38:42;664.58;;;326.10;;
55617;SDS011;41492;49.804;9.952;2022-11-04T01:41:10;658.72;;;311.73;;
55617;SDS011;41492;49.804;9.952;2022-11-04T01:43:43;667.10;;;334.73;;
55617;SDS011;41492;49.804;9.952;2022-11-04T01:46:11;664.28;;;327.40;;
55617;SDS011;41492;49.804;9.952;2022-11-04T01:48:44;661.72;;;321.20;;
55617;SDS011;41492;49.804;9.952;2022-11-04T01:51:11;662.65;;;323.90;;
55617;SDS011;41492;49.804;9.952;2022-11-04T01:53:38;663.28;;;325.88;;
55617;SDS011;41492;49.804;9.952;2022-11-04T01:56:08;667.05;;;341.25;;
55617;SDS011;41492;49.804;9.952;2022-11-04T01:58:37;665.88;;;338.80;;
55617;SDS011;41492;49.804;9.952;2022-11-04T02:01:05;660.70;;;318.65;;
55617;SDS011;41492;49.804;9.952;2022-11-04T02:03:33;668.28;;;346.55;;
55617;SDS011;41492;49.804;9.952;2022-11-04T02:06:01;664.90;;;332.42;;
55617;SDS011;41492;49.804;9.952;2022-11-04T02:08:28;667.28;;;333.30;;
55617;SDS011;41492;49.804;9.952;2022-11-04T02:10:57;664.53;;;330.15;;
55617;SDS011;41492;49.804;9.952;2022-11-04T02:13:24;658.88;;;311.45;;
55617;SDS011;41492;49.804;9.952;2022-11-04T02:15:52;660.22;;;316.35;;
55617;SDS011;41492;49.804;9.952;2022-11-04T02:18:29;659.85;;;317.25;;
55617;SDS011;41492;49.804;9.952;2022-11-04T02:21:12;655.88;;;306.77;;
55617;SDS011;41492;49.804;9.952;2022-11-04T02:24:04;666.50;;;337.95;;
55617;SDS011;41492;49.804;9.952;2022-11-04T02:26:54;665.03;;;338.77;;
55617;SDS011;41492;49.804;9.952;2022-11-04T02:29:36;663.03;;;332.80;;
55617;SDS011;41492;49.804;9.952;2022-11-04T02:32:11;664.25;;;330.88;;
55617;SDS011;41492;49.804;9.952;2022-11-04T02:34:46;658.78;;;315.17;;
55617;SDS011;41492;49.804;9.952;2022-11-04T02:37:21;662.10;;;330.42;;
55617;SDS011;41492;49.804;9.952;2022-11-04T02:39:54;663.95;;;330.70;;
55617;SDS011;41492;49.804;9.952;2022-11-04T02:42:24;661.08;;;322.92;;
55617;SDS011;41492;49.804;9.952;2022-11-04T02:44:57;658.67;;;312.15;;
55617;SDS011;41492;49.804;9.952;2022-11-04T02:47:31;658.40;;;314.58;;
55617;SDS011;41492;49.804;9.952;2022-11-04T02:49:59;657.10;;;305.65;;
55617;SDS011;41492;49.804;9.952;2022-11-04T02:52:31;658.47;;;307.10;;
55617;SDS011;41492;49.804;9.952;2022-11-04T02:55:03;658.80;;;312.33;;
55617;SDS011;41492;49.804;9.952;2022-11-04T02:57:31;664.45;;;331.17;;
55617;SDS011;41492;49.804;9.952;2022-11-04T03:00:03;665.67;;;338.30;;
55617;SDS011;41492;49.804;9.952;2022-11-04T03:02:32;665.83;;;341.65;;
55617;SDS011;41492;49.804;9.952;2022-11-04T03:05:01;663.58;;;334.60;;
55617;SDS011;41492;49.804;9.952;2022-11-04T03:07:30;662.35;;;328.75;;
55617;SDS011;41492;49.804;9.952;2022-11-04T03:10:00;663.42;;;332.08;;
55617;SDS011;41492;49.804;9.952;2022-11-04T03:12:30;663.40;;;329.02;;
55617;SDS011;41492;49.804;9.952;2022-11-04T03:15:02;663.20;;;331.13;;
55617;SDS011;41492;49.804;9.952;2022-11-04T03:17:32;660.67;;;321.02;;
55617;SDS011;41492;49.804;9.952;2022-11-04T03:20:03;663.33;;;325.35;;
55617;SDS011;41492;49.804;9.952;2022-11-04T03:22:33;662.55;;;324.50;;
55617;SDS011;41492;49.804;9.952;2022-11-04T03:25:01;666.60;;;340.80;;
55617;SDS011;41492;49.804;9.952;2022-11-04T03:27:30;661.47;;;324.10;;
55617;SDS011;41492;49.804;9.952;2022-11-04T03:30:02;664.53;;;336.23;;
55617;SDS011;41492;49.804;9.952;2022-11-04T03:32:34;656.15;;;302.15;;
55617;SDS011;41492;49.804;9.952;2022-11-04T03:35:05;658.95;;;319.35;;
55617;SDS011;41492;49.804;9.952;2022-11-04T03:37:32;655.55;;;304.92;;
55617;SDS011;41492;49.804;9.952;2022-11-04T03:39:59;666.35;;;341.60;;
55617;SDS011;41492;49.804;9.952;2022-11-04T03:42:26;657.40;;;309.88;;
55617;SDS011;41492;49.804;9.952;2022-11-04T03:44:54;665.65;;;337.27;;
55617;SDS011;41492;49.804;9.952;2022-11-04T03:47:23;655.28;;;301.67;;
55617;SDS011;41492;49.804;9.952;2022-11-04T03:49:51;658.08;;;310.33;;
55617;SDS011;41492;49.804;9.952;2022-11-04T03:52:20;659.92;;;318.65;;
55617;SDS011;41492;49.804;9.952;2022-11-04T03:54:47;666.35;;;344.70;;
55617;SDS011;41492;49.804;9.952;2022-11-04T03:57:20;662.05;;;326.27;;
55617;SDS011;41492;49.804;9.952;2022-11-04T04:00:00;663.42;;;329.92;;
55617;SDS011;41492;49.804;9.952;2022-11-04T04:02:34;662.30;;;325.75;;
55617;SDS011;41492;49.804;9.952;2022-11-04T04:05:08;653.97;;;302.42;;
55617;SDS011;41492;49.804;9.952;2022-11-04T04:07:37;660.72;;;324.52;;
55617;SDS011;41492;49.804;9.952;2022-11-04T04:10:08;657.55;;;309.77;;
55617;SDS011;41492;49.804;9.952;2022-11-04T04:12:52;660.90;;;325.30;;
55617;SDS011;41492;49.804;9.952;2022-11-04T04:15:22;661.15;;;317.02;;
55617;SDS011;41492;49.804;9.952;2022-11-04T04:17:54;658.42;;;319.42;;
55617;SDS011;41492;49.804;9.952;2022-11-04T04:20:22;658.58;;;314.85;;
55617;SDS011;41492;49.804;9.952;2022-11-04T04:22:52;663.35;;;331.45;;
55617;SDS011;41492;49.804;9.952;2022-11-04T04:25:21;656.85;;;307.17;;
55617;SDS011;41492;49.804;9.952;2022-11-04T04:28:06;661.58;;;326.92;;
55617;SDS011;41492;49.804;9.952;2022-11-04T04:30:34;665.65;;;335.17;;
55617;SDS011;41492;49.804;9.952;2022-11-04T04:33:04;657.78;;;315.38;;
55617;SDS011;41492;49.804;9.952;2022-11-04T04:35:32;666.03;;;334.75;;
55617;SDS011;41492;49.804;9.952;2022-11-04T04:38:11;658.53;;;310.70;;
55617;SDS011;41492;49.804;9.952;2022-11-04T04:41:00;663.60;;;335.20;;
55617;SDS011;41492;49.804;9.952;2022-11-04T04:43:47;660.80;;;320.63;;
55617;SDS011;41492;49.804;9.952;2022-11-04T04:46:31;661.75;;;319.05;;
55617;SDS011;41492;49.804;9.952;2022-11-04T04:49:04;661.95;;;323.55;;
55617;SDS011;41492;49.804;9.952;2022-11-04T04:51:31;662.25;;;325.05;;
55617;SDS011;41492;49.804;9.952;2022-11-04T04:53:57;664.22;;;336.17;;
55617;SDS011;41492;49.804;9.952;2022-11-04T04:56:24;658.88;;;311.67;;
55617;SDS011;41492;49.804;9.952;2022-11-04T04:58:51;659.83;;;318.50;;
55617;SDS011;41492;49.804;9.952;2022-11-04T05:01:17;663.72;;;331.92;;
55617;SDS011;41492;49.804;9.952;2022-11-04T05:03:44;658.03;;;307.92;;
55617;SDS011;41492;49.804;9.952;2022-11-04T05:06:12;658.13;;;312.35;;
55617;SDS011;41492;49.804;9.952;2022-11-04T05:08:39;657.38;;;307.77;;
55617;SDS011;41492;49.804;9.952;2022-11-04T05:11:05;663.90;;;337.77;;
55617;SDS011;41492;49.804;9.952;2022-11-04T05:13:32;666.53;;;340.90;;
55617;SDS011;41492;49.804;9.952;2022-11-04T05:16:02;661.35;;;323.60;;
55617;SDS011;41492;49.804;9.952;2022-11-04T05:18:29;662.83;;;327.23;;
55617;SDS011;41492;49.804;9.952;2022-11-04T05:20:56;659.88;;;317.42;;
55617;SDS011;41492;49.804;9.952;2022-11-04T05:23:24;666.40;;;338.42;;
55617;SDS011;41492;49.804;9.952;2022-11-04T05:25:50;656.53;;;306.75;;
55617;SDS011;41492;49.804;9.952;2022-11-04T05:28:17;660.95;;;324.42;;
55617;SDS011;41492;49.804;9.952;2022-11-04T05:30:44;663.42;;;331.45;;
55617;SDS011;41492;49.804;9.952;2022-11-04T05:33:10;663.50;;;333.92;;
55617;SDS011;41492;49.804;9.952;2022-11-04T05:35:37;659.70;;;316.52;;
55617;SDS011;41492;49.804;9.952;2022-11-04T05:38:03;667.78;;;346.40;;
55617;SDS011;41492;49.804;9.952;2022-11-04T05:40:31;657.40;;;312.13;;
55617;SDS011;41492;49.804;9.952;2022-11-04T05:42:58;661.60;;;324.85;;
55617;SDS011;41492;49.804;9.952;2022-11-04T05:45:25;663.03;;;330.00;;
55617;SDS011;41492;49.804;9.952;2022-11-04T05:47:58;662.80;;;331.65;;
55617;SDS011;41492;49.804;9.952;2022-11-04T05:50:25;659.78;;;309.35;;
55617;SDS011;41492;49.804;9.952;2022-11-04T05:52:52;659.22;;;319.17;;
55617;SDS011;41492;49.804;9.952;2022-11-04T05:55:18;659.03;;;326.35;;
55617;SDS011;41492;49.804;9.952;2022-11-04T05:57:46;664.88;;;338.33;;
55617;SDS011;41492;49.804;9.952;2022-11-04T06:00:13;664.13;;;338.25;;
55617;SDS011;41492;49.804;9.952;2022-11-04T06:02:40;656.72;;;309.30;;
55617;SDS011;41492;49.804;9.952;2022-11-04T06:05:07;659.40;;;313.95;;
55617;SDS011;41492;49.804;9.952;2022-11-04T06:07:34;667.47;;;347.92;;
55617;SDS011;41492;49.804;9.952;2022-11-04T06:10:01;663.25;;;331.23;;
55617;SDS011;41492;49.804;9.952;2022-11-04T06:12:27;665.08;;;339.75;;
55617;SDS011;41492;49.804;9.952;2022-11-04T06:14:55;661.40;;;325.17;;
55617;SDS011;41492;49.804;9.952;2022-11-04T06:17:22;656.63;;;306.95;;
55617;SDS011;41492;49.804;9.952;2022-11-04T06:19:48;663.53;;;336.23;;
55617;SDS011;41492;49.804;9.952;2022-11-04T06:22:16;654.42;;;298.55;;
55617;SDS011;41492;49.804;9.952;2022-11-04T06:24:44;660.42;;;321.30;;
55617;SDS011;41492;49.804;9.952;2022-11-04T06:27:11;657.83;;;307.65;;
55617;SDS011;41492;49.804;9.952;2022-11-04T06:29:38;663.70;;;320.85;;
55617;SDS011;41492;49.804;9.952;2022-11-04T06:32:07;656.72;;;301.25;;
55617;SDS011;41492;49.804;9.952;2022-11-04T06:34:34;655.38;;;304.48;;
55617;SDS011;41492;49.804;9.952;2022-11-04T06:37:00;659.75;;;316.20;;
55617;SDS011;41492;49.804;9.952;2022-11-04T06:39:27;656.58;;;299.27;;
55617;SDS011;41492;49.804;9.952;2022-11-04T06:41:54;660.72;;;321.95;;
55617;SDS011;41492;49.804;9.952;2022-11-04T06:44:20;658.22;;;312.27;;
55617;SDS011;41492;49.804;9.952;2022-11-04T06:46:48;659.78;;;314.27;;
55617;SDS011;41492;49.804;9.952;2022-11-04T06:49:17;665.88;;;340.77;;
55617;SDS011;41492;49.804;9.952;2022-11-04T06:51:45;652.67;;;293.60;;
55617;SDS011;41492;49.804;9.952;2022-11-04T06:54:12;657.67;;;308.35;;
55617;SDS011;41492;49.804;9.952;2022-11-04T06:56:39;655.47;;;302.00;;
55617;SDS011;41492;49.804;9.952;2022-11-04T06:59:06;663.45;;;323.70;;
55617;SDS011;41492;49.804;9.952;2022-11-04T07:01:34;656.88;;;312.70;;
55617;SDS011;41492;49.804;9.952;2022-11-04T07:04:01;665.35;;;325.45;;
55617;SDS011;41492;49.804;9.952;2022-11-04T07:06:30;663.97;;;331.92;;
55617;SDS011;41492;49.804;9.952;2022-11-04T07:08:58;669.38;;;343.05;;
55617;SDS011;41492;49.804;9.952;2022-11-04T07:11:26;667.90;;;341.85;;
55617;SDS011;41492;49.804;9.952;2022-11-04T07:13:53;666.03;;;342.35;;
55617;SDS011;41492;49.804;9.952;2022-11-04T07:16:20;673.83;;;356.48;;
55617;SDS011;41492;49.804;9.952;2022-11-04T07:18:47;675.40;;;358.70;;
55617;SDS011;41492;49.804;9.952;2022-11-04T07:21:14;673.60;;;351.30;;
55617;SDS011;41492;49.804;9.952;2022-11-04T07:23:42;666.40;;;337.73;;
55617;SDS011;41492;49.804;9.952;2022-11-04T07:26:09;670.72;;;348.80;;
55617;SDS011;41492;49.804;9.952;2022-11-04T07:28:36;662.97;;;333.13;;
55617;SDS011;41492;49.804;9.952;2022-11-04T07:31:04;674.97;;;371.92;;
55617;SDS011;41492;49.804;9.952;2022-11-04T07:33:32;672.17;;;357.77;;
55617;SDS011;41492;49.804;9.952;2022-11-04T07:36:02;672.05;;;357.15;;
55617;SDS011;41492;49.804;9.952;2022-11-04T07:38:30;679.10;;;374.73;;
55617;SDS011;41492;49.804;9.952;2022-11-04T07:40:58;676.17;;;372.38;;
55617;SDS011;41492;49.804;9.952;2022-11-04T07:43:26;677.40;;;371.88;;
55617;SDS011;41492;49.804;9.952;2022-11-04T07:45:57;672.05;;;360.60;;
55617;SDS011;41492;49.804;9.952;2022-11-04T07:48:25;673.30;;;365.65;;
55617;SDS011;41492;49.804;9.952;2022-11-04T07:50:53;674.30;;;364.92;;
55617;SDS011;41492;49.804;9.952;2022-11-04T07:53:20;669.60;;;344.73;;
55617;SDS011;41492;49.804;9.952;2022-11-04T07:55:47;677.13;;;375.02;;
55617;SDS011;41492;49.804;9.952;2022-11-04T07:58:16;674.00;;;356.48;;
55617;SDS011;41492;49.804;9.952;2022-11-04T08:00:43;669.42;;;349.30;;
55617;SDS011;41492;49.804;9.952;2022-11-04T08:03:10;681.95;;;365.55;;
55617;SDS011;41492;49.804;9.952;2022-11-04T08:05:36;675.20;;;372.45;;
55617;SDS011;41492;49.804;9.952;2022-11-04T08:08:03;679.65;;;376.35;;
55617;SDS011;41492;49.804;9.952;2022-11-04T08:10:30;675.75;;;367.70;;
55617;SDS011;41492;49.804;9.952;2022-11-04T08:12:56;670.42;;;355.95;;
55617;SDS011;41492;49.804;9.952;2022-11-04T08:15:24;681.40;;;392.30;;
55617;SDS011;41492;49.804;9.952;2022-11-04T08:17:53;676.58;;;378.90;;
55617;SDS011;41492;49.804;9.952;2022-11-04T08:20:19;669.03;;;348.88;;
55617;SDS011;41492;49.804;9.952;2022-11-04T08:22:46;681.08;;;391.83;;
55617;SDS011;41492;49.804;9.952;2022-11-04T08:25:13;674.20;;;363.92;;
55617;SDS011;41492;49.804;9.952;2022-11-04T08:27:39;680.13;;;385.90;;
55617;SDS011;41492;49.804;9.952;2022-11-04T08:30:06;680.03;;;384.92;;
55617;SDS011;41492;49.804;9.952;2022-11-04T08:32:35;672.95;;;360.55;;
55617;SDS011;41492;49.804;9.952;2022-11-04T08:35:02;675.90;;;373.52;;
55617;SDS011;41492;49.804;9.952;2022-11-04T08:37:29;677.35;;;381.83;;
55617;SDS011;41492;49.804;9.952;2022-11-04T08:39:55;679.45;;;380.00;;
55617;SDS011;41492;49.804;9.952;2022-11-04T08:42:22;681.22;;;389.75;;
55617;SDS011;41492;49.804;9.952;2022-11-04T08:44:50;680.53;;;385.80;;
55617;SDS011;41492;49.804;9.952;2022-11-04T08:47:17;679.40;;;387.10;;
55617;SDS011;41492;49.804;9.952;2022-11-04T08:49:45;671.92;;;357.73;;
55617;SDS011;41492;49.804;9.952;2022-11-04T08:52:11;678.97;;;384.33;;
55617;SDS011;41492;49.804;9.952;2022-11-04T08:54:38;681.50;;;388.10;;
55617;SDS011;41492;49.804;9.952;2022-11-04T08:57:05;677.72;;;383.38;;
55617;SDS011;41492;49.804;9.952;2022-11-04T08:59:32;678.10;;;364.77;;
55617;SDS011;41492;49.804;9.952;2022-11-04T09:01:58;681.97;;;388.30;;
55617;SDS011;41492;49.804;9.952;2022-11-04T09:04:25;680.13;;;386.85;;
55617;SDS011;41492;49.804;9.952;2022-11-04T09:06:53;682.00;;;391.75;;
55617;SDS011;41492;49.804;9.952;2022-11-04T09:09:20;678.80;;;382.20;;
55617;SDS011;41492;49.804;9.952;2022-11-04T09:11:47;681.70;;;392.45;;
55617;SDS011;41492;49.804;9.952;2022-11-04T09:14:13;678.17;;;370.67;;
55617;SDS011;41492;49.804;9.952;2022-11-04T09:16:42;675.03;;;368.85;;
55617;SDS011;41492;49.804;9.952;2022-11-04T09:19:08;675.47;;;363.95;;
55617;SDS011;41492;49.804;9.952;2022-11-04T09:21:35;682.90;;;400.58;;
55617;SDS011;41492;49.804;9.952;2022-11-04T09:24:04;678.63;;;381.25;;
55617;SDS011;41492;49.804;9.952;2022-11-04T09:26:31;686.78;;;402.33;;
55617;SDS011;41492;49.804;9.952;2022-11-04T09:28:58;677.53;;;367.05;;
55617;SDS011;41492;49.804;9.952;2022-11-04T09:31:26;675.75;;;372.00;;
55617;SDS011;41492;49.804;9.952;2022-11-04T09:33:53;678.28;;;375.27;;
55617;SDS011;41492;49.804;9.952;2022-11-04T09:36:20;682.08;;;390.98;;
55617;SDS011;41492;49.804;9.952;2022-11-04T09:38:47;684.25;;;400.67;;
55617;SDS011;41492;49.804;9.952;2022-11-04T09:44:30;674.03;;;366.77;;
55617;SDS011;41492;49.804;9.952;2022-11-04T09:47:01;676.90;;;369.42;;
55617;SDS011;41492;49.804;9.952;2022-11-04T09:49:28;683.15;;;387.05;;
55617;SDS011;41492;49.804;9.952;2022-11-04T09:51:58;680.05;;;387.48;;
55617;SDS011;41492;49.804;9.952;2022-11-04T09:54:28;685.08;;;398.58;;
55617;SDS011;41492;49.804;9.952;2022-11-04T09:56:59;677.72;;;377.17;;
55617;SDS011;41492;49.804;9.952;2022-11-04T09:59:27;675.22;;;371.98;;
55617;SDS011;41492;49.804;9.952;2022-11-04T10:04:51;681.70;;;388.77;;
55617;SDS011;41492;49.804;9.952;2022-11-04T10:07:29;679.10;;;380.48;;
55617;SDS011;41492;49.804;9.952;2022-11-04T10:10:04;677.03;;;376.52;;
55617;SDS011;41492;49.804;9.952;2022-11-04T10:12:44;672.78;;;361.25;;
55617;SDS011;41492;49.804;9.952;2022-11-04T10:18:13;675.05;;;369.55;;
55617;SDS011;41492;49.804;9.952;2022-11-04T10:20:48;675.70;;;366.35;;
55617;SDS011;41492;49.804;9.952;2022-11-04T10:23:24;676.38;;;371.73;;
55617;SDS011;41492;49.804;9.952;2022-11-04T10:25:55;686.13;;;404.88;;
55617;SDS011;41492;49.804;9.952;2022-11-04T10:28:26;686.35;;;409.35;;
55617;SDS011;41492;49.804;9.952;2022-11-04T10:30:57;685.05;;;405.30;;
55617;SDS011;41492;49.804;9.952;2022-11-04T10:33:26;674.53;;;366.20;;
55617;SDS011;41492;49.804;9.952;2022-11-04T10:35:55;684.05;;;402.13;;
55617;SDS011;41492;49.804;9.952;2022-11-04T10:38:26;686.13;;;410.27;;
55617;SDS011;41492;49.804;9.952;2022-11-04T10:40:57;683.97;;;403.88;;
55617;SDS011;41492;49.804;9.952;2022-11-04T10:43:26;683.67;;;398.88;;
55617;SDS011;41492;49.804;9.952;2022-11-04T10:46:00;676.70;;;373.95;;
55617;SDS011;41492;49.804;9.952;2022-11-04T10:48:33;685.75;;;407.80;;
55617;SDS011;41492;49.804;9.952;2022-11-04T10:51:03;673.72;;;363.88;;
55617;SDS011;41492;49.804;9.952;2022-11-04T10:53:31;675.92;;;373.80;;
55617;SDS011;41492;49.804;9.952;2022-11-04T10:56:00;684.17;;;404.75;;
55617;SDS011;41492;49.804;9.952;2022-11-04T10:58:30;685.97;;;397.02;;
55617;SDS011;41492;49.804;9.952;2022-11-04T11:00:58;685.38;;;409.98;;
55617;SDS011;41492;49.804;9.952;2022-11-04T11:03:29;684.28;;;403.15;;
55617;SDS011;41492;49.804;9.952;2022-11-04T11:06:08;681.72;;;392.33;;
55617;SDS011;41492;49.804;9.952;2022-11-04T11:08:36;676.08;;;375.00;;
55617;SDS011;41492;49.804;9.952;2022-11-04T11:11:05;684.00;;;403.42;;
55617;SDS011;41492;49.804;9.952;2022-11-04T11:13:33;681.17;;;393.17;;
55617;SDS011;41492;49.804;9.952;2022-11-04T11:16:09;686.45;;;411.27;;
55617;SDS011;41492;49.804;9.952;2022-11-04T11:18:38;686.72;;;408.10;;
55617;SDS011;41492;49.804;9.952;2022-11-04T11:21:07;683.72;;;403.65;;
55617;SDS011;41492;49.804;9.952;2022-11-04T11:23:40;681.75;;;387.27;;
55617;SDS011;41492;49.804;9.952;2022-11-04T11:26:08;683.67;;;400.55;;
55617;SDS011;41492;49.804;9.952;2022-11-04T11:28:37;685.78;;;409.52;;
55617;SDS011;41492;49.804;9.952;2022-11-04T11:31:05;680.60;;;382.33;;
55617;SDS011;41492;49.804;9.952;2022-11-04T11:33:39;683.28;;;400.98;;
55617;SDS011;41492;49.804;9.952;2022-11-04T11:36:14;686.58;;;408.67;;
55617;SDS011;41492;49.804;9.952;2022-11-04T11:38:50;679.17;;;386.48;;
55617;SDS011;41492;49.804;9.952;2022-11-04T11:41:19;685.63;;;400.17;;
55617;SDS011;41492;49.804;9.952;2022-11-04T11:43:53;689.50;;;410.67;;
55617;SDS011;41492;49.804;9.952;2022-11-04T11:46:23;685.90;;;408.00;;
55617;SDS011;41492;49.804;9.952;2022-11-04T11:48:52;684.13;;;404.13;;
55617;SDS011;41492;49.804;9.952;2022-11-04T11:51:25;684.75;;;409.05;;
55617;SDS011;41492;49.804;9.952;2022-11-04T11:53:57;688.47;;;419.92;;
55617;SDS011;41492;49.804;9.952;2022-11-04T11:56:29;685.78;;;407.65;;
55617;SDS011;41492;49.804;9.952;2022-11-04T11:58:59;682.25;;;393.15;;
55617;SDS011;41492;49.804;9.952;2022-11-04T12:01:33;693.47;;;424.83;;
55617;SDS011;41492;49.804;9.952;2022-11-04T12:04:02;694.85;;;428.73;;
55617;SDS011;41492;49.804;9.952;2022-11-04T12:06:32;689.63;;;420.30;;
55617;SDS011;41492;49.804;9.952;2022-11-04T12:09:10;685.00;;;392.67;;
55617;SDS011;41492;49.804;9.952;2022-11-04T12:11:49;682.00;;;395.52;;
55617;SDS011;41492;49.804;9.952;2022-11-04T12:14:22;691.53;;;393.50;;
55617;SDS011;41492;49.804;9.952;2022-11-04T12:16:57;691.22;;;422.60;;
55617;SDS011;41492;49.804;9.952;2022-11-04T12:19:38;691.28;;;428.70;;
55617;SDS011;41492;49.804;9.952;2022-11-04T12:22:13;689.35;;;419.42;;
55617;SDS011;41492;49.804;9.952;2022-11-04T12:24:47;694.63;;;410.48;;
55617;SDS011;41492;49.804;9.952;2022-11-04T12:27:21;689.20;;;416.63;;
55617;SDS011;41492;49.804;9.952;2022-11-04T12:29:58;683.22;;;388.40;;
55617;SDS011;41492;49.804;9.952;2022-11-04T12:32:33;698.45;;;446.70;;
55617;SDS011;41492;49.804;9.952;2022-11-04T12:35:14;689.08;;;419.75;;
55617;SDS011;41492;49.804;9.952;2022-11-04T12:37:49;695.60;;;441.67;;
55617;SDS011;41492;49.804;9.952;2022-11-04T12:40:19;692.70;;;429.30;;
55617;SDS011;41492;49.804;9.952;2022-11-04T12:42:53;693.70;;;434.10;;
55617;SDS011;41492;49.804;9.952;2022-11-04T12:45:30;696.63;;;439.02;;
55617;SDS011;41492;49.804;9.952;2022-11-04T12:48:06;698.42;;;442.90;;
55617;SDS011;41492;49.804;9.952;2022-11-04T12:50:37;692.45;;;429.90;;
55617;SDS011;41492;49.804;9.952;2022-11-04T12:53:14;694.65;;;427.05;;
55617;SDS011;41492;49.804;9.952;2022-11-04T12:55:48;685.30;;;404.38;;
55617;SDS011;41492;49.804;9.952;2022-11-04T12:58:26;696.65;;;434.08;;
55617;SDS011;41492;49.804;9.952;2022-11-04T13:00:59;694.17;;;418.70;;
55617;SDS011;41492;49.804;9.952;2022-11-04T13:03:32;689.47;;;393.30;;
55617;SDS011;41492;49.804;9.952;2022-11-04T13:06:03;693.80;;;416.33;;
55617;SDS011;41492;49.804;9.952;2022-11-04T13:08:32;703.97;;;433.08;;
55617;SDS011;41492;49.804;9.952;2022-11-04T13:11:02;699.17;;;441.98;;
55617;SDS011;41492;49.804;9.952;2022-11-04T13:13:46;703.13;;;445.00;;
55617;SDS011;41492;49.804;9.952;2022-11-04T13:16:16;697.03;;;445.73;;
55617;SDS011;41492;49.804;9.952;2022-11-04T13:18:44;692.60;;;415.42;;
55617;SDS011;41492;49.804;9.952;2022-11-04T13:21:14;698.40;;;443.60;;
55617;SDS011;41492;49.804;9.952;2022-11-04T13:23:44;699.45;;;442.25;;
55617;SDS011;41492;49.804;9.952;2022-11-04T13:26:15;692.15;;;411.05;;
55617;SDS011;41492;49.804;9.952;2022-11-04T13:28:43;700.03;;;447.65;;
55617;SDS011;41492;49.804;9.952;2022-11-04T13:31:26;694.25;;;432.98;;
55617;SDS011;41492;49.804;9.952;2022-11-04T13:33:57;690.15;;;405.95;;
55617;SDS011;41492;49.804;9.952;2022-11-04T13:36:32;693.13;;;418.75;;
55617;SDS011;41492;49.804;9.952;2022-11-04T13:39:05;692.88;;;411.17;;
55617;SDS011;41492;49.804;9.952;2022-11-04T13:41:50;697.88;;;419.60;;
55617;SDS011;41492;49.804;9.952;2022-11-04T13:44:29;700.50;;;459.05;;
55617;SDS011;41492;49.804;9.952;2022-11-04T13:47:00;695.88;;;424.65;;
55617;SDS011;41492;49.804;9.952;2022-11-04T13:49:30;698.92;;;451.20;;
55617;SDS011;41492;49.804;9.952;2022-11-04T13:52:03;700.13;;;457.67;;
55617;SDS011;41492;49.804;9.952;2022-11-04T13:54:34;695.42;;;440.00;;
55617;SDS011;41492;49.804;9.952;2022-11-04T13:57:04;700.92;;;458.83;;
55617;SDS011;41492;49.804;9.952;2022-11-04T13:59:32;698.72;;;443.45;;
55617;SDS011;41492;49.804;9.952;2022-11-04T14:08:13;696.08;;;440.20;;
55617;SDS011;41492;49.804;9.952;2022-11-04T14:10:45;698.47;;;449.60;;
55617;SDS011;41492;49.804;9.952;2022-11-04T14:13:40;697.30;;;445.13;;
55617;SDS011;41492;49.804;9.952;2022-11-04T14:16:37;698.58;;;450.05;;
55617;SDS011;41492;49.804;9.952;2022-11-04T14:22:21;699.08;;;440.88;;
55617;SDS011;41492;49.804;9.952;2022-11-04T14:24:55;699.90;;;449.33;;
55617;SDS011;41492;49.804;9.952;2022-11-04T14:27:23;693.40;;;427.15;;
55617;SDS011;41492;49.804;9.952;2022-11-04T14:29:52;699.92;;;450.10;;
55617;SDS011;41492;49.804;9.952;2022-11-04T14:32:21;699.58;;;450.55;;